createdAt,value
2019-02-17T00:00:34.908Z,25.97
2019-02-17T00:03:03.464Z,24.53
2019-02-17T00:05:32.949Z,24.07
2019-02-17T00:08:00.929Z,24.03
2019-02-17T00:10:40.095Z,25.03
2019-02-17T00:14:07.369Z,24.40
2019-02-17T00:16:40.582Z,23.80
2019-02-17T00:19:08.604Z,25.37
2019-02-17T00:21:36.341Z,25.50
2019-02-17T00:24:04.790Z,25.10
2019-02-17T00:26:33.876Z,24.77
2019-02-17T00:29:02.228Z,25.70
2019-02-17T00:31:33.901Z,25.70
2019-02-17T00:34:03.328Z,24.80
2019-02-17T00:36:31.480Z,24.77
2019-02-17T00:39:00.168Z,26.10
2019-02-17T00:41:42.979Z,25.27
2019-02-17T00:44:11.130Z,24.97
2019-02-17T00:46:39.164Z,25.13
2019-02-17T00:49:07.676Z,25.40
2019-02-17T00:51:36.373Z,26.67
2019-02-17T00:54:08.249Z,25.47
2019-02-17T00:57:03.545Z,26.67
2019-02-17T00:59:21.769Z,25.33
2019-02-17T01:04:38.988Z,26.63
2019-02-17T01:07:07.823Z,27.33
2019-02-17T01:09:35.741Z,27.80
2019-02-17T01:12:04.732Z,27.70
2019-02-17T01:14:32.947Z,27.70
2019-02-17T01:17:01.387Z,28.37
2019-02-17T01:19:29.783Z,28.57
2019-02-17T01:21:58.280Z,28.33
2019-02-17T01:24:29.901Z,28.53
2019-02-17T01:26:58.025Z,29.53
2019-02-17T01:29:26.065Z,26.80
2019-02-17T01:31:54.459Z,26.60
2019-02-17T01:34:22.474Z,26.80
2019-02-17T01:36:50.735Z,26.47
2019-02-17T01:39:21.486Z,25.67
2019-02-17T01:41:50.663Z,24.60
2019-02-17T01:44:19.806Z,25.53
2019-02-17T01:46:48.232Z,27.97
2019-02-17T01:49:20.887Z,26.07
2019-02-17T01:51:48.908Z,26.33
2019-02-17T01:54:17.363Z,26.30
2019-02-17T01:56:45.714Z,26.03
2019-02-17T01:59:13.858Z,25.07
2019-02-17T02:01:46.039Z,26.37
2019-02-17T02:04:14.624Z,25.03
2019-02-17T02:06:44.039Z,25.40
2019-02-17T02:09:12.080Z,26.57
2019-02-17T02:11:42.340Z,28.17
2019-02-17T02:14:12.294Z,27.53
2019-02-17T02:16:42.159Z,26.30
2019-02-17T02:19:10.332Z,28.10
2019-02-17T02:21:41.658Z,27.13
2019-02-17T02:24:09.800Z,27.93
2019-02-17T02:26:38.246Z,28.63
2019-02-17T02:29:06.594Z,30.37
2019-02-17T02:31:35.500Z,30.33
2019-02-17T02:34:06.222Z,30.73
2019-02-17T02:36:35.165Z,31.07
2019-02-17T02:39:05.591Z,31.63
2019-02-17T02:41:35.187Z,33.20
2019-02-17T02:44:04.575Z,33.33
2019-02-17T02:46:39.870Z,31.03
2019-02-17T02:49:08.788Z,32.40
2019-02-17T02:51:37.501Z,33.47
2019-02-17T02:54:06.885Z,34.27
2019-02-17T02:56:39.546Z,34.20
2019-02-17T02:59:08.215Z,34.63
2019-02-17T03:01:39.055Z,32.23
2019-02-17T03:04:11.835Z,32.60
2019-02-17T03:09:45.865Z,32.13
2019-02-17T03:12:13.663Z,32.63
2019-02-17T03:14:42.842Z,33.73
2019-02-17T03:17:14.665Z,33.90
2019-02-17T03:19:42.977Z,33.50
2019-02-17T03:22:18.737Z,34.73
2019-02-17T03:25:22.713Z,34.10
2019-02-17T03:28:02.874Z,34.27
2019-02-17T03:30:42.489Z,34.67
2019-02-17T03:33:33.104Z,35.40
2019-02-17T03:36:03.267Z,35.13
2019-02-17T03:38:37.703Z,33.67
2019-02-17T03:41:13.315Z,34.20
2019-02-17T03:43:42.970Z,33.17
2019-02-17T03:46:12.164Z,33.77
2019-02-17T03:48:40.588Z,33.40
2019-02-17T03:51:14.581Z,33.30
2019-02-17T03:53:45.728Z,32.57
2019-02-17T03:56:13.828Z,35.93
2019-02-17T03:58:46.592Z,33.30
2019-02-17T04:01:15.274Z,33.53
2019-02-17T04:03:47.131Z,35.63
2019-02-17T04:06:15.032Z,34.73
2019-02-17T04:08:44.114Z,32.83
2019-02-17T04:11:12.883Z,33.37
2019-02-17T04:13:44.401Z,34.27
2019-02-17T04:16:12.260Z,32.90
2019-02-17T04:18:44.730Z,32.87
2019-02-17T04:21:13.329Z,33.00
2019-02-17T04:23:42.139Z,32.40
2019-02-17T04:26:12.133Z,33.23
2019-02-17T04:28:39.917Z,32.43
2019-02-17T04:31:10.361Z,33.73
2019-02-17T04:33:38.813Z,33.17
2019-02-17T04:36:09.498Z,33.00
2019-02-17T04:38:38.113Z,33.00
2019-02-17T04:41:07.010Z,33.60
2019-02-17T04:43:37.754Z,34.43
2019-02-17T04:46:05.573Z,35.43
2019-02-17T04:48:35.046Z,33.43
2019-02-17T04:51:22.887Z,34.47
2019-02-17T05:06:02.482Z,38.37
2019-02-17T05:08:34.037Z,37.80
2019-02-17T05:11:09.239Z,37.67
2019-02-17T05:13:50.588Z,39.00
2019-02-17T05:16:22.770Z,37.03
2019-02-17T05:22:16.137Z,39.57
2019-02-17T05:24:44.002Z,38.20
2019-02-17T05:27:54.361Z,38.00
2019-02-17T05:30:25.736Z,35.63
2019-02-17T05:33:03.347Z,36.77
2019-02-17T05:35:29.904Z,36.63
2019-02-17T05:37:58.627Z,38.70
2019-02-17T05:40:27.214Z,36.67
2019-02-17T05:43:00.072Z,38.80
2019-02-17T05:45:30.725Z,38.90
2019-02-17T05:48:04.595Z,37.37
2019-02-17T05:50:32.841Z,39.80
2019-02-17T05:56:31.132Z,38.07
2019-02-17T05:59:04.669Z,38.73
2019-02-17T06:01:35.775Z,39.30
2019-02-17T06:04:12.614Z,38.83
2019-02-17T06:06:48.119Z,37.93
2019-02-17T06:09:16.571Z,40.90
2019-02-17T06:11:45.269Z,41.27
2019-02-17T06:14:13.121Z,39.20
2019-02-17T06:16:43.561Z,39.67
2019-02-17T06:19:11.846Z,41.53
2019-02-17T06:25:28.823Z,40.83
2019-02-17T06:27:58.552Z,39.50
2019-02-17T06:30:27.707Z,38.93
2019-02-17T06:34:58.258Z,38.90
2019-02-17T06:42:39.112Z,40.27
2019-02-17T06:45:28.512Z,41.37
2019-02-17T06:47:59.753Z,40.00
2019-02-17T06:50:38.353Z,42.30
2019-02-17T06:53:31.805Z,42.40
2019-02-17T06:56:09.054Z,39.57
2019-02-17T06:59:12.818Z,42.07
2019-02-17T07:01:32.457Z,41.63
2019-02-17T07:10:33.188Z,40.17
2019-02-17T07:13:33.575Z,39.87
2019-02-17T07:16:12.493Z,36.33
2019-02-17T07:18:59.543Z,39.43
2019-02-17T07:28:33.848Z,38.13
2019-02-17T07:38:00.632Z,34.47
2019-02-17T07:41:11.543Z,34.73
2019-02-17T07:43:52.732Z,33.43
2019-02-17T07:46:25.165Z,33.03
2019-02-17T07:51:43.970Z,32.20
2019-02-17T07:54:32.615Z,32.90
2019-02-17T07:57:01.675Z,30.70
2019-02-17T07:59:30.748Z,29.60
2019-02-17T08:02:01.662Z,29.93
2019-02-17T08:04:36.311Z,29.97
2019-02-17T08:07:06.403Z,29.17
2019-02-17T08:09:36.213Z,27.90
2019-02-17T08:15:25.178Z,27.67
2019-02-17T08:17:54.505Z,25.63
2019-02-17T08:20:33.482Z,26.20
2019-02-17T08:23:28.777Z,26.07
2019-02-17T08:25:36.769Z,26.53
2019-02-17T08:28:16.410Z,26.10
2019-02-17T08:30:44.618Z,25.37
2019-02-17T08:33:15.315Z,25.90
2019-02-17T08:35:43.673Z,25.87
2019-02-17T08:38:15.978Z,25.13
2019-02-17T08:40:44.380Z,25.93
2019-02-17T08:43:13.047Z,25.43
2019-02-17T08:45:44.173Z,25.37
2019-02-17T08:48:14.682Z,26.23
2019-02-17T08:50:43.544Z,23.87
2019-02-17T08:53:13.415Z,25.67
2019-02-17T08:55:43.399Z,25.70
2019-02-17T08:58:16.045Z,25.67
2019-02-17T09:00:44.753Z,23.67
2019-02-17T09:03:16.007Z,25.07
2019-02-17T09:05:55.817Z,23.13
2019-02-17T09:08:38.423Z,25.27
2019-02-17T09:11:08.958Z,25.80
2019-02-17T09:13:42.312Z,25.03
2019-02-17T09:16:12.311Z,25.07
2019-02-17T09:18:40.908Z,24.43
2019-02-17T09:21:10.229Z,24.57
2019-02-17T09:23:38.831Z,24.77
2019-02-17T09:26:18.403Z,24.40
2019-02-17T09:28:46.983Z,25.70
2019-02-17T09:31:44.306Z,25.33
2019-02-17T09:37:21.840Z,25.87
2019-02-17T09:40:19.961Z,25.70
2019-02-17T09:43:07.089Z,24.93
2019-02-17T09:45:39.032Z,25.43
2019-02-17T09:48:37.780Z,25.80
2019-02-17T09:50:37.924Z,26.07
2019-02-17T09:53:58.605Z,26.10
2019-02-17T09:55:42.653Z,25.60
2019-02-17T09:58:12.570Z,26.53
2019-02-17T10:00:40.913Z,25.13
2019-02-17T10:03:12.097Z,26.13
2019-02-17T10:05:42.415Z,25.93
2019-02-17T10:08:29.682Z,27.77
2019-02-17T10:11:23.245Z,27.80
2019-02-17T10:13:51.783Z,25.67
2019-02-17T10:16:23.009Z,25.83
2019-02-17T10:18:51.314Z,27.33
2019-02-17T10:21:19.428Z,26.13
2019-02-17T10:23:47.507Z,26.50
2019-02-17T10:26:15.818Z,26.87
2019-02-17T10:28:44.199Z,26.93
2019-02-17T10:31:22.218Z,25.60
2019-02-17T10:33:51.539Z,26.00
2019-02-17T10:36:22.232Z,27.10
2019-02-17T10:38:51.066Z,24.70
2019-02-17T10:41:23.215Z,26.73
2019-02-17T10:43:51.563Z,26.37
2019-02-17T10:46:19.451Z,26.50
2019-02-17T10:48:48.354Z,25.63
2019-02-17T10:51:16.613Z,25.07
2019-02-17T10:53:44.403Z,24.60
2019-02-17T10:56:12.670Z,25.40
2019-02-17T10:58:42.285Z,24.27
2019-02-17T11:01:10.448Z,24.87
2019-02-17T11:03:53.055Z,25.37
2019-02-17T11:06:56.346Z,24.47
2019-02-17T11:09:47.716Z,24.70
2019-02-17T11:12:15.938Z,24.23
2019-02-17T11:15:27.140Z,23.97
2019-02-17T11:17:56.250Z,23.80
2019-02-17T11:20:24.716Z,24.07
2019-02-17T11:22:53.381Z,23.20
2019-02-17T11:25:22.358Z,23.73
2019-02-17T11:27:51.730Z,23.20
2019-02-17T11:30:24.828Z,24.13
2019-02-17T11:33:12.578Z,24.17
2019-02-17T11:35:41.312Z,23.57
2019-02-17T11:38:31.869Z,24.37
2019-02-17T11:41:24.473Z,23.83
2019-02-17T11:43:52.705Z,22.30
2019-02-17T11:46:22.041Z,23.47
2019-02-17T11:48:51.730Z,23.33
2019-02-17T11:51:25.332Z,23.17
2019-02-17T11:53:55.895Z,21.50
2019-02-17T11:56:26.087Z,21.33
2019-02-17T11:59:01.487Z,21.87
2019-02-17T12:01:38.266Z,23.37
2019-02-17T12:04:09.646Z,23.47
2019-02-17T12:06:49.085Z,23.40
2019-02-17T12:09:31.611Z,23.47
2019-02-17T12:12:03.371Z,22.83
2019-02-17T12:14:48.127Z,22.20
2019-02-17T12:17:16.626Z,22.33
2019-02-17T12:19:45.147Z,21.43
2019-02-17T12:22:38.895Z,22.60
2019-02-17T12:25:27.151Z,22.07
2019-02-17T12:28:09.216Z,21.53
2019-02-17T12:30:51.942Z,22.10
2019-02-17T12:33:27.876Z,22.10
2019-02-17T12:35:58.537Z,22.30
2019-02-17T12:38:36.068Z,22.90
2019-02-17T12:41:07.009Z,23.30
2019-02-17T12:43:37.532Z,22.80
2019-02-17T12:46:08.409Z,21.97
2019-02-17T12:48:39.861Z,23.37
2019-02-17T12:51:28.744Z,21.80
2019-02-17T12:53:58.055Z,22.20
2019-02-17T12:56:29.358Z,23.57
2019-02-17T13:02:40.406Z,21.90
2019-02-17T13:05:12.677Z,21.30
2019-02-17T13:07:42.702Z,20.57
2019-02-17T13:20:33.488Z,19.97
2019-02-17T13:39:09.074Z,17.80
2019-02-17T13:41:39.792Z,18.37
2019-02-17T13:44:08.672Z,17.27
2019-02-17T13:46:39.974Z,17.70
2019-02-17T13:49:21.870Z,17.57
2019-02-17T13:51:53.827Z,17.63
2019-02-17T13:54:28.555Z,15.97
2019-02-17T13:56:56.914Z,17.57
2019-02-17T13:59:59.446Z,16.93
2019-02-17T14:02:29.399Z,16.50
2019-02-17T14:04:58.356Z,17.33
2019-02-17T14:10:41.533Z,16.57
2019-02-17T14:13:10.470Z,16.23
2019-02-17T14:15:48.161Z,16.77
2019-02-17T14:18:12.158Z,16.07
2019-02-17T14:20:40.537Z,17.23
2019-02-17T14:23:09.298Z,16.00
2019-02-17T14:25:40.739Z,15.60
2019-02-17T14:28:09.399Z,15.37
2019-02-17T14:30:38.423Z,15.80
2019-02-17T14:33:23.519Z,16.47
2019-02-17T14:36:13.073Z,14.17
2019-02-17T14:38:45.191Z,14.30
2019-02-17T14:41:24.532Z,13.90
2019-02-17T14:43:53.568Z,15.23
2019-02-17T14:46:22.643Z,15.77
2019-02-17T14:48:58.594Z,15.30
2019-02-17T14:51:24.075Z,15.20
2019-02-17T14:54:10.105Z,15.53
2019-02-17T14:56:41.521Z,16.60
2019-02-17T14:59:11.398Z,14.67
2019-02-17T15:01:54.311Z,15.70
2019-02-17T15:04:25.292Z,14.83
2019-02-17T15:07:40.354Z,15.80
2019-02-17T15:09:58.217Z,15.77
2019-02-17T15:13:11.646Z,15.57
2019-02-17T15:15:35.744Z,15.73
2019-02-17T15:18:42.895Z,15.43
2019-02-17T15:21:23.532Z,14.90
2019-02-17T15:23:54.241Z,14.80
2019-02-17T15:29:12.625Z,15.70
2019-02-17T15:31:41.549Z,15.40
2019-02-17T15:34:18.531Z,15.97
2019-02-17T15:36:46.003Z,16.50
2019-02-17T15:39:16.486Z,16.30
2019-02-17T15:41:47.301Z,17.90
2019-02-17T15:44:16.615Z,16.23
2019-02-17T15:46:46.165Z,16.13
2019-02-17T15:49:15.245Z,19.03
2019-02-17T15:51:45.680Z,17.13
2019-02-17T15:54:18.796Z,17.70
2019-02-17T15:56:47.021Z,17.47
2019-02-17T15:59:16.545Z,18.00
2019-02-17T16:01:44.385Z,17.17
2019-02-17T16:04:12.706Z,17.07
2019-02-17T16:06:41.678Z,18.13
2019-02-17T16:09:09.535Z,17.53
2019-02-17T16:11:38.667Z,17.27
2019-02-17T16:14:16.892Z,16.63
2019-02-17T16:16:47.482Z,16.77
2019-02-17T16:19:15.946Z,17.33
2019-02-17T16:21:43.888Z,16.80
2019-02-17T16:24:11.620Z,18.40
2019-02-17T16:26:42.343Z,17.20
2019-02-17T16:29:11.027Z,16.93
2019-02-17T16:31:40.315Z,17.10
2019-02-17T16:34:08.529Z,18.30
2019-02-17T16:36:37.252Z,18.50
2019-02-17T16:39:15.633Z,18.33
2019-02-17T16:45:55.000Z,18.17
2019-02-17T16:48:45.397Z,18.37
2019-02-17T16:51:09.117Z,17.33
2019-02-17T16:53:37.236Z,16.80
2019-02-17T16:56:06.027Z,18.00
2019-02-17T16:58:34.249Z,17.97
2019-02-17T17:01:42.749Z,18.90
2019-02-17T17:04:16.621Z,17.50
2019-02-17T17:06:42.438Z,18.97
2019-02-17T17:09:17.457Z,18.97
2019-02-17T17:11:42.176Z,17.90
2019-02-17T17:14:10.511Z,18.80
2019-02-17T17:16:41.893Z,17.57
2019-02-17T17:19:12.710Z,18.17
2019-02-17T17:21:44.027Z,18.33
2019-02-17T17:24:25.840Z,17.67
2019-02-17T17:27:33.414Z,18.03
2019-02-17T17:30:02.645Z,18.23
2019-02-17T17:32:36.055Z,17.97
2019-02-17T17:35:07.299Z,17.73
2019-02-17T17:37:36.429Z,18.70
2019-02-17T17:40:05.354Z,17.30
2019-02-17T17:42:33.202Z,17.00
2019-02-17T17:45:02.007Z,18.63
2019-02-17T17:48:14.814Z,19.37
2019-02-17T17:50:43.509Z,17.73
2019-02-17T17:56:02.045Z,18.63
2019-02-17T17:58:33.416Z,18.73
2019-02-17T18:01:02.420Z,19.07
2019-02-17T18:03:30.711Z,18.37
2019-02-17T18:06:01.841Z,18.10
2019-02-17T18:08:40.438Z,19.37
2019-02-17T18:11:09.066Z,19.83
2019-02-17T18:13:41.554Z,18.83
2019-02-17T18:16:39.373Z,19.90
2019-02-17T18:19:08.543Z,19.50
2019-02-17T18:21:37.162Z,19.27
2019-02-17T18:24:15.124Z,18.13
2019-02-17T18:37:44.011Z,19.37
2019-02-17T18:43:49.580Z,19.90
2019-02-17T18:46:26.402Z,20.07
2019-02-17T18:48:55.394Z,20.20
2019-02-17T18:51:23.444Z,19.33
2019-02-17T18:53:51.762Z,19.93
2019-02-17T18:56:21.075Z,19.53
2019-02-17T18:58:53.259Z,19.73
2019-02-17T19:01:21.656Z,18.23
2019-02-17T19:04:04.158Z,20.17
2019-02-17T19:13:22.677Z,20.07
2019-02-17T19:15:56.211Z,20.10
2019-02-17T19:18:50.975Z,19.13
2019-02-17T19:21:19.526Z,18.23
2019-02-17T19:23:59.489Z,19.80
2019-02-17T19:33:18.142Z,19.63
2019-02-17T19:36:03.937Z,20.17
2019-02-17T19:38:53.279Z,19.57
2019-02-17T19:41:18.144Z,20.77
2019-02-17T19:43:47.781Z,19.33
2019-02-17T19:46:39.093Z,19.93
2019-02-17T19:49:08.746Z,19.30
2019-02-17T19:51:38.076Z,20.33
2019-02-17T19:54:08.161Z,19.77
2019-02-17T19:56:39.667Z,20.80
2019-02-17T19:59:11.122Z,19.43
2019-02-17T20:01:49.809Z,19.07
2019-02-17T20:04:33.928Z,19.67
2019-02-17T20:07:22.997Z,20.07
2019-02-17T20:10:26.299Z,19.73
2019-02-17T20:16:04.789Z,17.73
2019-02-17T20:18:36.075Z,19.30
2019-02-17T20:21:09.464Z,18.97
2019-02-17T20:23:41.762Z,19.10
2019-02-17T20:26:11.255Z,19.63
2019-02-17T20:28:44.929Z,18.27
2019-02-17T20:31:16.104Z,19.27
2019-02-17T20:33:51.038Z,19.53
2019-02-17T20:36:17.298Z,19.37
2019-02-17T20:38:58.596Z,20.57
2019-02-17T20:41:30.925Z,18.60
2019-02-17T20:44:21.442Z,19.27
2019-02-17T20:46:56.429Z,19.30
2019-02-17T20:49:27.888Z,19.10
2019-02-17T20:52:03.715Z,19.27
2019-02-17T20:54:40.777Z,20.63
2019-02-17T20:57:10.735Z,18.97
2019-02-17T20:59:38.825Z,19.63
2019-02-17T21:02:07.227Z,18.97
2019-02-17T21:04:35.204Z,21.63
2019-02-17T21:07:06.922Z,20.40
2019-02-17T21:09:35.280Z,18.50
2019-02-17T21:12:05.255Z,18.90
2019-02-17T21:17:55.028Z,19.03
2019-02-17T21:20:26.030Z,19.47
2019-02-17T21:23:01.448Z,19.03
2019-02-17T21:25:35.218Z,18.30
2019-02-17T21:28:03.934Z,17.80
2019-02-17T21:30:32.963Z,18.77
2019-02-17T21:33:01.745Z,18.30
2019-02-17T21:35:34.464Z,18.87
2019-02-17T21:38:03.482Z,17.77
2019-02-17T21:41:15.488Z,17.87
2019-02-17T21:43:55.008Z,18.20
2019-02-17T21:46:24.225Z,17.07
2019-02-17T21:48:52.377Z,19.00
2019-02-17T21:51:22.034Z,18.53
2019-02-17T21:53:51.493Z,18.03
2019-02-17T21:56:22.697Z,17.70
2019-02-17T21:58:57.447Z,17.13
2019-02-17T22:01:27.803Z,18.83
2019-02-17T22:03:58.960Z,19.17
2019-02-17T22:06:33.441Z,18.80
2019-02-17T22:08:57.897Z,19.07
2019-02-17T22:11:28.498Z,18.33
2019-02-17T22:13:57.089Z,17.90
2019-02-17T22:16:28.025Z,18.50
2019-02-17T22:18:56.201Z,18.33
2019-02-17T22:21:24.886Z,19.77
2019-02-17T22:23:52.639Z,19.63
2019-02-17T22:26:21.206Z,19.00
2019-02-17T22:28:52.178Z,18.10
2019-02-17T22:31:22.109Z,18.43
2019-02-17T22:33:51.351Z,18.97
2019-02-17T22:36:19.857Z,18.60
2019-02-17T22:38:48.401Z,19.30
2019-02-17T22:41:16.926Z,19.97
2019-02-17T22:43:45.323Z,19.63
2019-02-17T22:46:14.032Z,19.53
2019-02-17T22:48:42.369Z,18.40
2019-02-17T22:51:11.188Z,19.27
2019-02-17T22:53:43.665Z,19.53
2019-02-17T22:56:12.101Z,19.63
2019-02-17T22:58:40.324Z,19.87
2019-02-17T23:01:11.578Z,19.50
2019-02-17T23:03:40.512Z,20.00
2019-02-17T23:06:08.996Z,18.33
2019-02-17T23:08:37.379Z,19.37
2019-02-17T23:11:05.497Z,19.37
2019-02-17T23:13:34.083Z,20.07
2019-02-17T23:16:03.093Z,20.37
2019-02-17T23:18:31.452Z,19.33
2019-02-17T23:20:59.765Z,20.27
2019-02-17T23:23:28.917Z,20.03
2019-02-17T23:26:00.254Z,19.50
2019-02-17T23:28:29.208Z,19.87
2019-02-17T23:30:57.298Z,19.47
2019-02-17T23:33:25.475Z,18.03
2019-02-17T23:35:53.439Z,19.03
2019-02-17T23:38:23.189Z,19.10
2019-02-17T23:40:51.226Z,19.23
2019-02-17T23:43:19.616Z,19.67
2019-02-17T23:45:47.445Z,18.53
2019-02-17T23:48:16.740Z,19.10
2019-02-17T23:50:44.793Z,20.30
2019-02-17T23:53:12.600Z,20.33
2019-02-17T23:55:40.735Z,19.33
2019-02-17T23:58:08.938Z,20.27
